Time;durP1;ratioP1;P1;durP2;ratioP2;P2;SDS_P1;SDS_P2;PMS_P1;PMS_P2;Temp;Humidity;BMP_temperature;BMP_pressure;BME280_temperature;BME280_humidity;BME280_pressure;Samples;Min_cycle;Max_cycle;Signal;HPM_P1;HPM_P2
2022/01/15 00:02:24;;;;;;;113.53;25.88;;;;;;;;;;5127490;27;20102;-80
2022/01/15 00:04:51;;;;;;;117.97;26.48;;;;;;;;;;5129468;27;20095;-80
2022/01/15 00:07:19;;;;;;;105.22;24.60;;;;;;;;;;5147965;27;20757;-80
2022/01/15 00:09:49;;;;;;;127.05;24.95;;;;;;;;;;5152022;27;20055;-80
2022/01/15 00:12:16;;;;;;;112.28;24.98;;;;;;;;;;5132280;27;20047;-81
2022/01/15 00:14:43;;;;;;;99.10;25.10;;;;;;;;;;5120931;27;20612;-81
2022/01/15 00:17:20;;;;;;;98.90;24.13;;;;;;;;;;5118044;27;20055;-80
2022/01/15 00:19:47;;;;;;;105.25;24.88;;;;;;;;;;5133605;27;20928;-79
2022/01/15 00:22:14;;;;;;;101.30;23.58;;;;;;;;;;5152643;27;20146;-80
2022/01/15 00:24:41;;;;;;;102.05;22.90;;;;;;;;;;5134705;27;20073;-80
2022/01/15 00:27:08;;;;;;;108.47;22.40;;;;;;;;;;5132683;27;20048;-80
2022/01/15 00:29:35;;;;;;;99.20;22.20;;;;;;;;;;5143421;27;20083;-80
2022/01/15 00:32:02;;;;;;;136.07;22.98;;;;;;;;;;5125811;27;20052;-80
2022/01/15 00:34:29;;;;;;;88.78;21.80;;;;;;;;;;5151396;27;20927;-81
2022/01/15 00:36:55;;;;;;;93.82;22.98;;;;;;;;;;5137663;27;20245;-81
2022/01/15 00:39:22;;;;;;;86.65;22.45;;;;;;;;;;5139633;27;20055;-80
2022/01/15 00:41:49;;;;;;;86.95;22.63;;;;;;;;;;5157845;27;20042;-80
2022/01/15 00:44:15;;;;;;;79.68;21.85;;;;;;;;;;5153009;27;20051;-81
2022/01/15 00:46:42;;;;;;;100.68;23.45;;;;;;;;;;5137772;27;20079;-80
2022/01/15 00:49:09;;;;;;;76.40;21.65;;;;;;;;;;5122882;27;20057;-80
2022/01/15 00:51:36;;;;;;;103.15;22.40;;;;;;;;;;5138742;27;21317;-80
2022/01/15 00:54:03;;;;;;;104.93;22.08;;;;;;;;;;5157377;27;20527;-80
2022/01/15 00:56:29;;;;;;;90.38;22.15;;;;;;;;;;5157398;27;20051;-80
2022/01/15 00:58:56;;;;;;;93.25;22.85;;;;;;;;;;5136424;27;20116;-79
2022/01/15 01:01:22;;;;;;;100.40;22.30;;;;;;;;;;5139951;27;20106;-80
2022/01/15 01:03:51;;;;;;;143.13;24.25;;;;;;;;;;5132115;27;20066;-80
2022/01/15 01:06:18;;;;;;;110.65;22.92;;;;;;;;;;5154475;27;20051;-80
2022/01/15 01:08:44;;;;;;;98.70;21.17;;;;;;;;;;5137133;27;20055;-80
2022/01/15 01:11:17;;;;;;;104.38;22.83;;;;;;;;;;5153530;27;20060;-81
2022/01/15 01:24:32;;;;;;;75.03;19.52;;;;;;;;;;5157969;27;20040;-81
2022/01/15 01:27:12;;;;;;;80.18;18.98;;;;;;;;;;5146587;27;20055;-80
2022/01/15 01:32:34;;;;;;;103.53;19.48;;;;;;;;;;5164954;27;20073;-81
2022/01/15 01:35:07;;;;;;;71.45;18.30;;;;;;;;;;5163895;27;20055;-80
2022/01/15 01:37:39;;;;;;;85.97;18.98;;;;;;;;;;5130974;27;20061;-81
2022/01/15 01:40:36;;;;;;;75.20;17.42;;;;;;;;;;5153348;27;20051;-80
2022/01/15 01:45:32;;;;;;;71.47;17.77;;;;;;;;;;5150971;27;20043;-79
2022/01/15 01:47:59;;;;;;;69.65;16.83;;;;;;;;;;5143642;27;20050;-81
2022/01/15 01:50:26;;;;;;;69.43;16.15;;;;;;;;;;5146152;27;20047;-79
2022/01/15 01:52:54;;;;;;;78.82;17.25;;;;;;;;;;5145243;27;20069;-80
2022/01/15 01:55:22;;;;;;;66.65;15.55;;;;;;;;;;5142050;27;20065;-80
2022/01/15 01:57:50;;;;;;;70.75;16.40;;;;;;;;;;5142855;27;20104;-80
2022/01/15 02:00:18;;;;;;;64.20;16.15;;;;;;;;;;5139204;27;20164;-80
2022/01/15 02:02:45;;;;;;;70.53;15.50;;;;;;;;;;5140987;27;20061;-80
2022/01/15 02:05:12;;;;;;;56.85;14.85;;;;;;;;;;5142900;27;20043;-79
2022/01/15 02:07:39;;;;;;;62.28;15.32;;;;;;;;;;5143811;27;20076;-80
2022/01/15 02:10:08;;;;;;;53.20;14.27;;;;;;;;;;5160281;27;20051;-80
2022/01/15 02:12:36;;;;;;;45.67;14.18;;;;;;;;;;5143714;27;20047;-80
2022/01/15 02:15:10;;;;;;;50.85;13.65;;;;;;;;;;5141983;27;20051;-81
2022/01/15 02:17:37;;;;;;;49.53;13.35;;;;;;;;;;5159810;27;20208;-80
2022/01/15 02:20:22;;;;;;;56.50;13.35;;;;;;;;;;5142888;27;20112;-80
2022/01/15 02:25:42;;;;;;;48.28;13.13;;;;;;;;;;5140493;27;20503;-79
2022/01/15 02:28:09;;;;;;;51.00;13.50;;;;;;;;;;5139964;27;20124;-81
2022/01/15 02:30:35;;;;;;;47.17;12.77;;;;;;;;;;5151180;27;20101;-81
2022/01/15 02:33:02;;;;;;;43.83;11.85;;;;;;;;;;5122057;27;20051;-79
2022/01/15 02:35:29;;;;;;;53.25;13.18;;;;;;;;;;5120590;27;20059;-79
2022/01/15 02:38:01;;;;;;;49.22;14.00;;;;;;;;;;5133422;27;20048;-79
2022/01/15 02:40:27;;;;;;;50.53;12.40;;;;;;;;;;5121746;27;20044;-80
2022/01/15 02:42:55;;;;;;;60.78;14.00;;;;;;;;;;5126563;27;20559;-79
2022/01/15 02:45:23;;;;;;;60.83;14.50;;;;;;;;;;5159782;27;20043;-80
2022/01/15 02:48:01;;;;;;;66.28;13.65;;;;;;;;;;5157854;27;20047;-80
2022/01/15 02:50:29;;;;;;;70.07;14.68;;;;;;;;;;5159001;27;20108;-80
2022/01/15 02:52:56;;;;;;;72.13;16.15;;;;;;;;;;5158527;27;20081;-80
2022/01/15 02:55:22;;;;;;;72.65;15.00;;;;;;;;;;5159522;27;20048;-79
2022/01/15 02:57:49;;;;;;;73.13;14.75;;;;;;;;;;5136585;27;20052;-79
2022/01/15 03:00:15;;;;;;;81.57;14.57;;;;;;;;;;5140779;27;20068;-80
2022/01/15 03:02:41;;;;;;;79.03;15.82;;;;;;;;;;5134379;27;20039;-79
2022/01/15 03:05:08;;;;;;;80.07;16.38;;;;;;;;;;5135835;27;20047;-80
2022/01/15 03:07:36;;;;;;;60.63;14.20;;;;;;;;;;5129892;27;20055;-80
2022/01/15 03:10:03;;;;;;;69.25;12.77;;;;;;;;;;5152822;27;20070;-81
2022/01/15 03:12:29;;;;;;;58.40;12.60;;;;;;;;;;5138828;27;20055;-80
2022/01/15 03:15:00;;;;;;;61.70;13.13;;;;;;;;;;5135992;27;20051;-79
2022/01/15 03:17:27;;;;;;;65.40;12.93;;;;;;;;;;5138980;27;20061;-80
2022/01/15 03:19:53;;;;;;;67.00;13.18;;;;;;;;;;5158017;27;20047;-80
2022/01/15 03:22:20;;;;;;;60.40;12.55;;;;;;;;;;5137717;27;20467;-80
2022/01/15 03:24:46;;;;;;;62.17;13.38;;;;;;;;;;5151697;27;20050;-79
2022/01/15 03:27:13;;;;;;;64.88;13.90;;;;;;;;;;5139299;27;20804;-80
2022/01/15 03:29:39;;;;;;;62.72;12.85;;;;;;;;;;5157618;27;20403;-80
2022/01/15 03:32:06;;;;;;;63.72;12.43;;;;;;;;;;5138331;27;20047;-80
2022/01/15 03:34:32;;;;;;;57.47;12.18;;;;;;;;;;5157073;27;20051;-80
2022/01/15 03:36:58;;;;;;;62.80;12.55;;;;;;;;;;5155706;27;20116;-80
2022/01/15 03:39:25;;;;;;;60.45;12.60;;;;;;;;;;5138117;27;20058;-80
2022/01/15 03:41:51;;;;;;;64.13;12.50;;;;;;;;;;5139849;27;20047;-79
2022/01/15 03:44:18;;;;;;;51.20;11.95;;;;;;;;;;5155301;27;20039;-80
2022/01/15 03:46:44;;;;;;;43.10;11.23;;;;;;;;;;5153311;27;20055;-80
2022/01/15 03:49:10;;;;;;;44.97;10.30;;;;;;;;;;5155385;27;20100;-80
2022/01/15 03:51:37;;;;;;;47.00;9.85;;;;;;;;;;5154312;27;20047;-80
2022/01/15 03:54:03;;;;;;;42.90;9.25;;;;;;;;;;5137216;27;20444;-80
2022/01/15 03:56:30;;;;;;;42.05;9.77;;;;;;;;;;5124907;27;20548;-80
2022/01/15 03:58:57;;;;;;;44.72;10.38;;;;;;;;;;5145193;27;20047;-79
2022/01/15 04:01:23;;;;;;;49.55;10.98;;;;;;;;;;5155475;27;20054;-80
2022/01/15 04:03:50;;;;;;;50.72;11.27;;;;;;;;;;5149973;27;20063;-80
2022/01/15 04:06:17;;;;;;;48.55;12.38;;;;;;;;;;5138165;27;20062;-80
2022/01/15 04:08:43;;;;;;;55.65;11.48;;;;;;;;;;5152449;27;20086;-80
2022/01/15 04:11:10;;;;;;;60.85;12.25;;;;;;;;;;5142435;27;20055;-80
2022/01/15 04:13:36;;;;;;;47.92;10.50;;;;;;;;;;5138526;27;20840;-80
2022/01/15 04:16:03;;;;;;;57.05;10.90;;;;;;;;;;5140490;27;20093;-80
2022/01/15 04:18:36;;;;;;;44.47;10.48;;;;;;;;;;5140254;27;20520;-80
2022/01/15 04:21:02;;;;;;;43.20;10.02;;;;;;;;;;5130861;27;20568;-80
2022/01/15 04:23:29;;;;;;;39.65;9.20;;;;;;;;;;5120095;27;20116;-80
2022/01/15 04:25:55;;;;;;;40.55;9.32;;;;;;;;;;5141714;27;20047;-79
2022/01/15 04:28:21;;;;;;;39.67;10.48;;;;;;;;;;5140844;27;20053;-80
2022/01/15 04:30:48;;;;;;;43.88;10.35;;;;;;;;;;5139464;27;20051;-80
2022/01/15 04:33:15;;;;;;;41.78;10.10;;;;;;;;;;5139800;27;20621;-81
2022/01/15 04:35:41;;;;;;;51.33;11.38;;;;;;;;;;5140534;27;20047;-80
2022/01/15 04:38:11;;;;;;;46.28;11.35;;;;;;;;;;5141069;27;20051;-79
2022/01/15 04:40:37;;;;;;;40.45;10.45;;;;;;;;;;5132996;27;20052;-80
2022/01/15 04:43:04;;;;;;;44.70;9.57;;;;;;;;;;5138237;27;20052;-80
2022/01/15 04:45:30;;;;;;;30.40;8.73;;;;;;;;;;5130263;27;20105;-79
2022/01/15 04:47:56;;;;;;;28.00;7.95;;;;;;;;;;5143194;27;20056;-79
2022/01/15 04:50:23;;;;;;;26.23;8.32;;;;;;;;;;5140098;27;20047;-80
2022/01/15 04:52:49;;;;;;;34.47;9.18;;;;;;;;;;5140577;27;20077;-80
2022/01/15 04:55:15;;;;;;;33.25;8.27;;;;;;;;;;5151473;27;20116;-80
2022/01/15 04:57:42;;;;;;;25.73;8.43;;;;;;;;;;5157338;27;20636;-80
2022/01/15 05:00:10;;;;;;;30.52;9.55;;;;;;;;;;5129144;27;20575;-79
2022/01/15 05:02:37;;;;;;;30.13;9.13;;;;;;;;;;5145649;27;20116;-80
2022/01/15 05:05:03;;;;;;;36.42;9.23;;;;;;;;;;5120927;27;20109;-80
2022/01/15 05:07:30;;;;;;;29.40;8.88;;;;;;;;;;5140538;27;20112;-80
2022/01/15 05:09:56;;;;;;;35.80;9.23;;;;;;;;;;5154417;27;20058;-81
2022/01/15 05:12:28;;;;;;;34.33;9.93;;;;;;;;;;5159146;27;20051;-81
2022/01/15 05:14:55;;;;;;;29.83;9.85;;;;;;;;;;5140414;27;20051;-81
2022/01/15 05:17:21;;;;;;;37.17;12.52;;;;;;;;;;5159417;27;20802;-81
2022/01/15 05:19:48;;;;;;;36.45;10.85;;;;;;;;;;5138696;27;20109;-79
2022/01/15 05:22:14;;;;;;;37.78;10.60;;;;;;;;;;5139551;27;20104;-81
2022/01/15 05:24:41;;;;;;;38.03;11.48;;;;;;;;;;5157764;27;20108;-81
2022/01/15 05:27:07;;;;;;;48.22;12.80;;;;;;;;;;5139512;27;20058;-80
2022/01/15 05:29:34;;;;;;;44.17;12.98;;;;;;;;;;5139686;27;20483;-81
2022/01/15 05:32:00;;;;;;;43.35;13.00;;;;;;;;;;5140292;27;20127;-80
2022/01/15 05:34:31;;;;;;;49.70;14.10;;;;;;;;;;5139742;27;20089;-80
2022/01/15 05:36:58;;;;;;;51.90;13.95;;;;;;;;;;5150467;27;20137;-81
2022/01/15 05:39:24;;;;;;;44.35;13.90;;;;;;;;;;5119419;27;20062;-81
2022/01/15 05:41:51;;;;;;;61.28;14.43;;;;;;;;;;5118995;27;20063;-81
2022/01/15 05:44:17;;;;;;;56.53;14.98;;;;;;;;;;5145285;27;20493;-81
2022/01/15 05:46:45;;;;;;;58.67;14.57;;;;;;;;;;5158184;27;20086;-79
2022/01/15 05:49:13;;;;;;;62.42;15.20;;;;;;;;;;5139910;27;20992;-80
2022/01/15 05:51:39;;;;;;;58.90;16.67;;;;;;;;;;5158168;27;20047;-80
2022/01/15 05:54:10;;;;;;;65.13;16.17;;;;;;;;;;5139052;27;20070;-80
2022/01/15 05:56:38;;;;;;;65.45;17.85;;;;;;;;;;5139773;27;20051;-81
2022/01/15 05:59:04;;;;;;;66.32;17.15;;;;;;;;;;5158947;27;20055;-81
2022/01/15 06:01:30;;;;;;;74.97;17.98;;;;;;;;;;5135435;27;20036;-81
2022/01/15 06:03:57;;;;;;;66.18;19.05;;;;;;;;;;5152899;27;20069;-80
2022/01/15 06:06:23;;;;;;;72.50;18.33;;;;;;;;;;5130742;27;20054;-81
2022/01/15 06:08:50;;;;;;;71.97;18.95;;;;;;;;;;5139322;27;20112;-81
2022/01/15 06:11:19;;;;;;;75.75;18.02;;;;;;;;;;5139102;27;20156;-81
2022/01/15 06:13:46;;;;;;;60.30;17.83;;;;;;;;;;5137403;27;20090;-81
2022/01/15 06:16:13;;;;;;;66.32;18.15;;;;;;;;;;5138149;27;20055;-81
2022/01/15 06:18:40;;;;;;;75.15;18.10;;;;;;;;;;5155467;27;20051;-80
2022/01/15 06:21:06;;;;;;;59.53;17.80;;;;;;;;;;5138607;27;20047;-81
2022/01/15 06:23:33;;;;;;;60.17;17.25;;;;;;;;;;5156575;27;20050;-79
2022/01/15 06:25:59;;;;;;;59.65;18.08;;;;;;;;;;5138174;27;20055;-79
2022/01/15 06:28:26;;;;;;;60.05;18.27;;;;;;;;;;5156487;27;20047;-81
2022/01/15 06:30:52;;;;;;;70.35;18.85;;;;;;;;;;5125993;27;20065;-81
2022/01/15 06:33:20;;;;;;;60.42;18.55;;;;;;;;;;5138309;27;20051;-80
2022/01/15 06:35:46;;;;;;;74.18;18.17;;;;;;;;;;5137433;27;20082;-81
2022/01/15 06:38:13;;;;;;;66.45;17.25;;;;;;;;;;5134839;27;20055;-80
2022/01/15 06:40:39;;;;;;;58.00;16.75;;;;;;;;;;5137889;27;20048;-80
2022/01/15 06:43:06;;;;;;;72.85;17.85;;;;;;;;;;5154690;27;20039;-81
2022/01/15 06:45:33;;;;;;;55.53;15.88;;;;;;;;;;5149555;27;20059;-81
2022/01/15 06:48:00;;;;;;;67.90;16.95;;;;;;;;;;5123000;27;20951;-80
2022/01/15 06:50:28;;;;;;;88.20;19.25;;;;;;;;;;5135917;27;20075;-79
2022/01/15 06:52:54;;;;;;;96.00;18.33;;;;;;;;;;5137187;27;20104;-80
2022/01/15 06:55:21;;;;;;;83.75;17.52;;;;;;;;;;5135758;27;20536;-81
2022/01/15 06:57:48;;;;;;;65.65;15.20;;;;;;;;;;5137567;27;20059;-81
2022/01/15 07:00:14;;;;;;;74.70;15.00;;;;;;;;;;5136726;27;20091;-81
2022/01/15 07:02:41;;;;;;;59.00;14.52;;;;;;;;;;5135537;27;20051;-80
2022/01/15 07:05:08;;;;;;;78.72;15.35;;;;;;;;;;5154767;27;20051;-80
2022/01/15 07:07:35;;;;;;;72.70;16.35;;;;;;;;;;5139131;27;20450;-80
2022/01/15 07:10:01;;;;;;;96.53;16.23;;;;;;;;;;5137317;27;20091;-79
2022/01/15 07:12:28;;;;;;;86.72;16.15;;;;;;;;;;5130783;27;20047;-80
2022/01/15 07:14:54;;;;;;;120.80;18.40;;;;;;;;;;5155038;27;20104;-80
2022/01/15 07:17:20;;;;;;;65.72;15.20;;;;;;;;;;5155262;27;20055;-81
2022/01/15 07:19:51;;;;;;;89.32;16.27;;;;;;;;;;5127641;27;20048;-80
2022/01/15 07:22:17;;;;;;;97.78;17.02;;;;;;;;;;5146508;27;20055;-81
2022/01/15 07:24:43;;;;;;;91.38;17.25;;;;;;;;;;5131325;27;20510;-81
2022/01/15 07:27:10;;;;;;;86.03;16.58;;;;;;;;;;5131298;27;20055;-81
2022/01/15 07:29:38;;;;;;;112.07;19.48;;;;;;;;;;5130790;27;20125;-80
2022/01/15 07:32:05;;;;;;;89.70;17.48;;;;;;;;;;5130979;27;20051;-79
2022/01/15 07:34:31;;;;;;;82.70;17.58;;;;;;;;;;5130004;27;20090;-80
2022/01/15 07:36:58;;;;;;;124.25;21.40;;;;;;;;;;5142763;27;20040;-81
2022/01/15 07:39:25;;;;;;;145.43;20.08;;;;;;;;;;5133906;27;20090;-81
2022/01/15 07:41:51;;;;;;;127.13;18.27;;;;;;;;;;5144942;27;20066;-81
2022/01/15 07:44:18;;;;;;;212.20;24.42;;;;;;;;;;5133646;27;20051;-81
2022/01/15 07:46:44;;;;;;;112.95;17.92;;;;;;;;;;5134398;27;20073;-81
2022/01/15 07:49:10;;;;;;;112.63;17.70;;;;;;;;;;5126660;27;20086;-81
2022/01/15 07:51:37;;;;;;;423.45;36.28;;;;;;;;;;5124290;27;20840;-80
2022/01/15 07:54:04;;;;;;;164.68;19.13;;;;;;;;;;5124520;27;20048;-80
2022/01/15 07:56:31;;;;;;;151.30;19.98;;;;;;;;;;5152148;27;20939;-81
2022/01/15 07:58:57;;;;;;;103.65;18.13;;;;;;;;;;5145333;27;20486;-81
2022/01/15 08:01:23;;;;;;;195.77;21.35;;;;;;;;;;5132909;27;20357;-80
2022/01/15 08:03:50;;;;;;;123.75;18.33;;;;;;;;;;5130603;27;20812;-79
2022/01/15 08:06:16;;;;;;;185.63;22.15;;;;;;;;;;5131999;27;20048;-80
2022/01/15 08:08:43;;;;;;;261.23;24.85;;;;;;;;;;5141140;27;20051;-84
2022/01/15 08:11:09;;;;;;;140.68;20.25;;;;;;;;;;5130689;27;20079;-83
2022/01/15 08:13:36;;;;;;;204.32;23.25;;;;;;;;;;5130749;27;20052;-83
2022/01/15 08:16:04;;;;;;;263.27;27.60;;;;;;;;;;5132987;27;20083;-83
2022/01/15 08:18:32;;;;;;;122.75;21.50;;;;;;;;;;5126412;27;20047;-83
2022/01/15 08:20:58;;;;;;;111.25;19.60;;;;;;;;;;5114729;27;20855;-83
2022/01/15 08:23:25;;;;;;;165.15;20.40;;;;;;;;;;5123627;27;20082;-84
2022/01/15 08:25:51;;;;;;;162.63;21.98;;;;;;;;;;5150464;27;21188;-83
2022/01/15 08:28:19;;;;;;;185.85;24.23;;;;;;;;;;5132128;27;20059;-84
2022/01/15 08:30:45;;;;;;;107.72;20.00;;;;;;;;;;5128614;27;20117;-84
2022/01/15 08:33:11;;;;;;;235.10;23.65;;;;;;;;;;5138343;27;20093;-83
2022/01/15 08:35:38;;;;;;;293.20;29.90;;;;;;;;;;5121905;27;20055;-84
2022/01/15 08:38:04;;;;;;;215.00;25.95;;;;;;;;;;5121718;27;20055;-84
2022/01/15 08:40:32;;;;;;;227.07;27.00;;;;;;;;;;5120395;27;20583;-84
2022/01/15 08:42:59;;;;;;;134.88;23.83;;;;;;;;;;5131456;27;21018;-84
2022/01/15 08:45:26;;;;;;;153.30;23.40;;;;;;;;;;5130068;27;20051;-84
2022/01/15 08:47:56;;;;;;;178.95;24.92;;;;;;;;;;5129333;27;20063;-84
2022/01/15 08:50:23;;;;;;;203.52;27.50;;;;;;;;;;5141154;27;20063;-82
2022/01/15 08:52:49;;;;;;;117.32;22.75;;;;;;;;;;5128783;27;20050;-84
2022/01/15 08:55:16;;;;;;;115.10;21.70;;;;;;;;;;5131573;27;20079;-84
2022/01/15 08:57:43;;;;;;;237.25;25.63;;;;;;;;;;5132405;27;20259;-84
2022/01/15 09:00:11;;;;;;;237.38;27.63;;;;;;;;;;5155655;27;20180;-83
2022/01/15 09:02:37;;;;;;;134.25;20.75;;;;;;;;;;5156658;27;20603;-82
2022/01/15 09:05:04;;;;;;;245.40;24.30;;;;;;;;;;5128651;27;20166;-84
2022/01/15 09:07:33;;;;;;;173.50;23.27;;;;;;;;;;5152441;27;20067;-81
2022/01/15 09:10:00;;;;;;;163.77;23.38;;;;;;;;;;5141457;27;20112;-87
2022/01/15 09:12:26;;;;;;;154.52;21.75;;;;;;;;;;5132445;27;20057;-80
2022/01/15 09:14:54;;;;;;;166.48;23.50;;;;;;;;;;5142886;27;20087;-80
2022/01/15 09:17:21;;;;;;;159.18;23.58;;;;;;;;;;5128291;27;20108;-80
2022/01/15 09:19:47;;;;;;;203.88;23.23;;;;;;;;;;5132688;27;20079;-79
2022/01/15 09:22:14;;;;;;;242.38;28.02;;;;;;;;;;5120240;27;20052;-77
2022/01/15 09:24:44;;;;;;;203.13;24.00;;;;;;;;;;5154587;27;20108;-77
2022/01/15 09:30:15;;;;;;;164.95;26.00;;;;;;;;;;5153554;27;20052;-80
2022/01/15 09:32:44;;;;;;;129.45;23.67;;;;;;;;;;5130724;27;20048;-80
2022/01/15 09:35:11;;;;;;;127.55;21.98;;;;;;;;;;5160929;27;20104;-80
2022/01/15 09:37:38;;;;;;;144.38;21.48;;;;;;;;;;5123071;27;20120;-80
2022/01/15 09:40:05;;;;;;;141.35;20.52;;;;;;;;;;5135088;27;20051;-81
2022/01/15 09:42:32;;;;;;;128.05;23.13;;;;;;;;;;5150462;27;21012;-81
2022/01/15 09:44:58;;;;;;;104.68;20.45;;;;;;;;;;5143131;27;20046;-81
2022/01/15 09:47:26;;;;;;;145.05;23.52;;;;;;;;;;5133416;27;20599;-81
2022/01/15 09:49:53;;;;;;;149.52;22.27;;;;;;;;;;5128146;27;20081;-81
2022/01/15 09:52:20;;;;;;;102.03;20.40;;;;;;;;;;5131109;27;20044;-81
2022/01/15 09:54:46;;;;;;;119.07;20.95;;;;;;;;;;5147032;27;20055;-80
2022/01/15 09:57:14;;;;;;;125.25;19.13;;;;;;;;;;5143076;27;20059;-79
2022/01/15 09:59:40;;;;;;;121.55;21.25;;;;;;;;;;5140460;27;20082;-80
2022/01/15 10:02:06;;;;;;;117.50;20.67;;;;;;;;;;5152021;27;20051;-80
2022/01/15 10:04:35;;;;;;;164.40;22.85;;;;;;;;;;5157007;27;20055;-81
2022/01/15 10:07:06;;;;;;;118.07;22.05;;;;;;;;;;5132747;27;20075;-79
2022/01/15 10:09:33;;;;;;;179.07;23.88;;;;;;;;;;5149390;27;20101;-81
2022/01/15 10:11:59;;;;;;;129.75;22.73;;;;;;;;;;5128901;27;20091;-81
2022/01/15 10:14:27;;;;;;;134.77;22.33;;;;;;;;;;5123768;27;20056;-81
2022/01/15 10:16:55;;;;;;;135.10;20.95;;;;;;;;;;5139914;27;20082;-80
2022/01/15 10:19:23;;;;;;;152.32;23.00;;;;;;;;;;5133439;27;20051;-80
2022/01/15 10:22:10;;;;;;;133.63;21.60;;;;;;;;;;5152046;27;20043;-81
2022/01/15 10:24:37;;;;;;;113.72;23.15;;;;;;;;;;5133467;27;20067;-81
2022/01/15 10:27:17;;;;;;;116.72;21.42;;;;;;;;;;5129988;27;20050;-80
2022/01/15 10:30:13;;;;;;;89.72;19.05;;;;;;;;;;5132935;27;20055;-79
2022/01/15 10:32:50;;;;;;;88.32;19.42;;;;;;;;;;5121634;27;20074;-78
2022/01/15 10:35:17;;;;;;;91.75;19.48;;;;;;;;;;5150613;27;20485;-80
2022/01/15 10:37:48;;;;;;;83.10;16.48;;;;;;;;;;5133086;27;20147;-80
2022/01/15 10:40:15;;;;;;;82.65;17.58;;;;;;;;;;5152159;27;20047;-81
2022/01/15 10:42:41;;;;;;;69.53;15.38;;;;;;;;;;5126083;27;20078;-80
2022/01/15 10:45:12;;;;;;;73.95;18.05;;;;;;;;;;5146532;27;20108;-80
2022/01/15 10:47:39;;;;;;;78.70;19.23;;;;;;;;;;5132678;27;20079;-81
2022/01/15 10:50:06;;;;;;;76.65;18.17;;;;;;;;;;5165679;27;20104;-81
2022/01/15 10:52:33;;;;;;;93.32;19.15;;;;;;;;;;5141318;27;20426;-80
2022/01/15 10:55:01;;;;;;;82.80;17.73;;;;;;;;;;5128985;27;20557;-80
2022/01/15 10:57:29;;;;;;;80.55;16.27;;;;;;;;;;5130123;27;20060;-80
2022/01/15 10:59:56;;;;;;;74.25;15.93;;;;;;;;;;5157059;27;20051;-81
2022/01/15 11:02:23;;;;;;;65.63;16.35;;;;;;;;;;5115124;27;20299;-81
2022/01/15 11:04:49;;;;;;;86.55;16.90;;;;;;;;;;5133822;27;20086;-78
2022/01/15 11:07:16;;;;;;;66.55;16.80;;;;;;;;;;5136780;27;20526;-80
2022/01/15 11:09:43;;;;;;;84.03;17.75;;;;;;;;;;5133529;27;20069;-80
2022/01/15 11:12:10;;;;;;;78.03;18.30;;;;;;;;;;5128970;27;20055;-78
2022/01/15 11:14:37;;;;;;;84.00;19.30;;;;;;;;;;5131341;27;20086;-80
2022/01/15 11:17:04;;;;;;;89.90;19.48;;;;;;;;;;5135750;27;20083;-79
2022/01/15 11:19:31;;;;;;;73.32;20.63;;;;;;;;;;5115781;27;20035;-79
2022/01/15 11:21:59;;;;;;;107.32;21.23;;;;;;;;;;5139020;27;20105;-79
2022/01/15 11:24:25;;;;;;;87.28;19.80;;;;;;;;;;5130490;27;20074;-79
2022/01/15 11:26:55;;;;;;;98.47;23.20;;;;;;;;;;5140833;27;20048;-80
2022/01/15 11:29:21;;;;;;;108.95;22.30;;;;;;;;;;5153800;27;20526;-79
2022/01/15 11:31:51;;;;;;;111.90;22.92;;;;;;;;;;5132226;27;20058;-80
2022/01/15 11:34:19;;;;;;;137.18;23.75;;;;;;;;;;5127964;27;20518;-79
2022/01/15 11:36:45;;;;;;;98.60;20.80;;;;;;;;;;5154065;27;20585;-80
2022/01/15 11:39:14;;;;;;;92.30;22.02;;;;;;;;;;5154160;27;20136;-79
2022/01/15 11:41:40;;;;;;;92.68;21.88;;;;;;;;;;5133605;27;20087;-80
2022/01/15 11:44:08;;;;;;;77.95;20.95;;;;;;;;;;5123489;27;20062;-78
2022/01/15 11:46:52;;;;;;;94.28;21.40;;;;;;;;;;5134565;27;20055;-79
2022/01/15 11:49:24;;;;;;;91.47;21.13;;;;;;;;;;5147602;27;20055;-79
2022/01/15 11:52:14;;;;;;;90.32;20.42;;;;;;;;;;5128523;27;20058;-77
2022/01/15 11:54:40;;;;;;;113.25;22.58;;;;;;;;;;5132852;27;20056;-79
2022/01/15 11:57:24;;;;;;;105.65;23.17;;;;;;;;;;5147765;27;20047;-80
2022/01/15 11:59:51;;;;;;;113.25;21.42;;;;;;;;;;5128086;27;20588;-79
2022/01/15 12:02:23;;;;;;;117.32;22.52;;;;;;;;;;5131558;27;20089;-80
2022/01/15 12:04:50;;;;;;;100.75;21.92;;;;;;;;;;5125113;27;20085;-79
2022/01/15 12:07:23;;;;;;;99.30;22.67;;;;;;;;;;5142928;27;20047;-79
2022/01/15 12:09:50;;;;;;;133.88;25.77;;;;;;;;;;5145544;27;20047;-79
2022/01/15 12:14:50;;;;;;;98.53;23.33;;;;;;;;;;5148193;27;20104;-80
2022/01/15 12:17:23;;;;;;;121.13;26.23;;;;;;;;;;5132678;27;20144;-80
2022/01/15 12:19:50;;;;;;;73.80;19.80;;;;;;;;;;5127887;27;20212;-78
2022/01/15 12:22:35;;;;;;;70.95;19.50;;;;;;;;;;5125588;27;20571;-79
2022/01/15 12:25:08;;;;;;;78.28;18.35;;;;;;;;;;5124254;27;20047;-78
2022/01/15 12:27:40;;;;;;;93.72;18.27;;;;;;;;;;5144348;27;20116;-78
2022/01/15 12:30:13;;;;;;;68.20;18.80;;;;;;;;;;5132368;27;20047;-80
2022/01/15 12:32:41;;;;;;;67.53;18.20;;;;;;;;;;5153079;27;20051;-78
2022/01/15 12:35:14;;;;;;;72.47;18.58;;;;;;;;;;5122764;27;20049;-79
2022/01/15 12:37:59;;;;;;;74.18;18.85;;;;;;;;;;5133587;27;20051;-79
2022/01/15 12:40:48;;;;;;;80.13;19.33;;;;;;;;;;5133314;27;20082;-79
2022/01/15 12:43:17;;;;;;;74.43;18.45;;;;;;;;;;5121137;27;20047;-79
2022/01/15 12:45:48;;;;;;;60.38;19.05;;;;;;;;;;5153378;27;20081;-80
2022/01/15 12:48:19;;;;;;;71.63;18.88;;;;;;;;;;5135284;27;20112;-78
2022/01/15 12:50:47;;;;;;;83.25;19.88;;;;;;;;;;5134942;27;20504;-80
2022/01/15 12:53:14;;;;;;;88.00;18.90;;;;;;;;;;5152784;27;20097;-79
2022/01/15 12:55:41;;;;;;;67.30;18.38;;;;;;;;;;5133985;27;20058;-79
2022/01/15 12:58:08;;;;;;;69.65;21.45;;;;;;;;;;5153539;27;20086;-79
2022/01/15 13:00:36;;;;;;;56.22;18.38;;;;;;;;;;5138720;27;20055;-80
2022/01/15 13:03:06;;;;;;;67.47;19.05;;;;;;;;;;5148968;27;20054;-80
2022/01/15 13:05:37;;;;;;;63.73;18.37;;;;;;;;;;5133761;27;20051;-79
2022/01/15 13:08:03;;;;;;;;;;;;;;;;;;5152554;27;20494;-77
2022/01/15 13:10:30;;;;;;;61.95;18.95;;;;;;;;;;5149289;27;46048;-78
2022/01/15 13:12:56;;;;;;;68.90;19.83;;;;;;;;;;5123503;27;20661;-79
2022/01/15 13:15:26;;;;;;;87.53;20.65;;;;;;;;;;5139347;27;20051;-79
2022/01/15 13:17:52;;;;;;;54.08;17.80;;;;;;;;;;5128591;27;20073;-79
2022/01/15 13:20:28;;;;;;;48.63;17.85;;;;;;;;;;5130753;27;20132;-79
2022/01/15 13:22:54;;;;;;;47.67;18.00;;;;;;;;;;5149435;27;20148;-77
2022/01/15 13:25:21;;;;;;;41.90;15.65;;;;;;;;;;5136117;27;20052;-78
2022/01/15 13:27:48;;;;;;;49.00;17.92;;;;;;;;;;5141065;27;20087;-78
2022/01/15 13:30:14;;;;;;;50.33;17.33;;;;;;;;;;5135135;27;20622;-79
2022/01/15 13:32:51;;;;;;;44.03;16.73;;;;;;;;;;5153060;27;20051;-76
2022/01/15 13:35:19;;;;;;;39.65;15.93;;;;;;;;;;5125249;27;20047;-77
2022/01/15 13:37:53;;;;;;;44.78;16.35;;;;;;;;;;5154797;27;20124;-79
2022/01/15 13:40:40;;;;;;;39.00;15.55;;;;;;;;;;5154124;27;20075;-78
2022/01/15 13:43:08;;;;;;;36.83;14.98;;;;;;;;;;5152350;27;20063;-79
2022/01/15 13:45:35;;;;;;;43.30;15.73;;;;;;;;;;5152618;27;20047;-78
2022/01/15 13:48:12;;;;;;;39.10;14.50;;;;;;;;;;5131201;27;20510;-79
2022/01/15 13:53:31;;;;;;;36.97;14.32;;;;;;;;;;5150191;27;20108;-79
2022/01/15 13:56:14;;;;;;;38.47;16.17;;;;;;;;;;5151185;27;20039;-78
2022/01/15 13:58:41;;;;;;;35.92;14.02;;;;;;;;;;5132910;27;20087;-79
2022/01/15 14:01:17;;;;;;;36.95;15.00;;;;;;;;;;5142833;27;20052;-78
2022/01/15 14:03:44;;;;;;;35.40;13.73;;;;;;;;;;5135266;27;20054;-76
2022/01/15 14:06:12;;;;;;;30.80;12.88;;;;;;;;;;5129732;27;20048;-78
2022/01/15 14:08:39;;;;;;;35.05;13.32;;;;;;;;;;5133384;27;20068;-80
2022/01/15 14:11:13;;;;;;;36.70;13.88;;;;;;;;;;5144265;27;20070;-78
2022/01/15 14:13:43;;;;;;;37.33;14.02;;;;;;;;;;5125871;27;20113;-81
2022/01/15 14:16:29;;;;;;;37.63;15.18;;;;;;;;;;5126573;27;20055;-81
2022/01/15 14:19:25;;;;;;;40.35;15.85;;;;;;;;;;5125689;27;20051;-79
2022/01/15 14:21:53;;;;;;;41.95;16.30;;;;;;;;;;5152020;27;20104;-81
2022/01/15 14:24:22;;;;;;;43.85;15.40;;;;;;;;;;5147081;27;20052;-80
2022/01/15 14:26:50;;;;;;;43.15;15.98;;;;;;;;;;5145584;27;20100;-80
2022/01/15 14:29:17;;;;;;;38.55;15.35;;;;;;;;;;5149009;27;20506;-80
2022/01/15 14:31:46;;;;;;;40.45;14.77;;;;;;;;;;5114307;27;20082;-80
2022/01/15 14:34:13;;;;;;;44.37;15.73;;;;;;;;;;5114890;27;20560;-79
2022/01/15 14:36:39;;;;;;;40.55;14.88;;;;;;;;;;5146137;27;20051;-79
2022/01/15 14:39:06;;;;;;;48.70;15.18;;;;;;;;;;5135617;27;20055;-80
2022/01/15 14:41:34;;;;;;;47.05;16.40;;;;;;;;;;5131211;27;20063;-80
2022/01/15 14:44:01;;;;;;;46.58;17.23;;;;;;;;;;5122721;27;20100;-79
2022/01/15 14:46:28;;;;;;;40.00;15.00;;;;;;;;;;5127570;27;20055;-79
2022/01/15 14:48:54;;;;;;;41.35;15.70;;;;;;;;;;5149956;27;20436;-79